TENO2: Tenkiller Lake

Data processed at Sun Mar 18 2018 23:40


All information presented herein is the property of the government of the United States of America and may be revised or deleted at any time without prior notice.
Dissemination of this information without the expressed written consent of the Public Affairs Office, Tulsa District U.S. Army Corps of Engineers is strictly prohibited.
These data are gathered electronically and, as presented, have not undergone any form of quality control. These data are not guaranteed to be valid or correct.
Go to home page.
Go to station list.

Upstream stations:

Downstream station:
Previous Day
Next Day
Current Day
    
SHEF ID:       TENO2     Tenkiller Lake
STATION TYPE:  Reservoir
Normal Pool:  Bottom =   594.50, Top =   632.00

               PRECIP PRECIP(A) ELEVATION   STORAGE   TW-ELEV    INFLOW   RELEASE  AIR-TEMP  WIND-DIRWIND-SPEED REL-HUMID SOLAR-RAD   VOLTAGE  BAT-LOAD
                   in        in        ft     ac-ft        ft       cfs       cfs         F       deg       mph         %      W/m2      volt      volt
              Ccp-Rev   Ccp-Rev   Ccp-Rev   Ccp-Rev   Ccp-Rev  Regi-Rev  Regi-Rev   Ccp-Rev   Ccp-Rev   Ccp-Rev   Ccp-Rev   Ccp-Rev   Ccp-Rev   Ccp-Rev
(US/Central)
03/16 00:00      0.00      0.00    635.80    719311    487.07      1307      3600     62.96    230.30      0.48     43.22      1.00     13.74     13.24
03/16 01:00      0.00      0.00    635.77    718905    487.03      1307      3600     62.96    167.20      0.36     50.18      1.00     13.74     13.24
03/16 02:00      0.00      0.00    635.76    718770    487.05      1307      3600     62.96    188.80      0.44     58.11      0.00     13.74     13.24
03/16 03:00      0.00      0.00    635.75    718634    487.05       652      3600     63.39    225.10      0.64     58.60      0.00     13.74     13.24
03/16 04:00      0.00      0.00    635.73    718364    487.01       652      3600     63.39    168.30      0.41     60.13      1.00     13.74     13.30
03/16 05:00      0.00      0.00    635.72    718228    486.96      1307      3600     63.61    187.10      0.78     61.65      1.00     13.74     13.24
03/16 06:00      0.00      0.00    635.69    717822    487.00       980      3600     62.29    222.90      0.93     74.11      0.00     13.74     13.24
03/16 07:00      0.00      0.00    635.69    717822    487.07       980      3600     62.08    223.40      0.83     75.14      1.00     13.74     13.30
03/16 08:00      0.00      0.00    635.68    717687    487.07       931      3600     62.29    235.00      1.01     76.61      2.00     13.74     13.30
03/16 09:00      0.00      0.00    635.65    717281    487.10       866      3600     63.84    227.70      1.55     74.04     53.00     13.74     13.24
03/16 10:00      0.00      0.00    635.65    717281    486.98       146      3600     65.70    183.30      1.48     69.53    262.00     13.74     13.18
03/16 11:00      0.00      0.00    635.62    716875    487.12        81      3600     69.44    234.90      2.86     57.32    406.00     13.74     13.18
03/16 12:00      0.00      0.00    635.61    716739    487.09        16      3600     72.63    235.90      4.27     39.19    666.00     13.74     13.18
03/16 13:00      0.00      0.00    635.59    716469    487.03         8      3600     74.50    224.80      3.89     28.93    768.00     13.74     13.18
03/16 14:00      0.00      0.00    635.56    716063    487.08        10      3600     76.35    235.30      4.83     20.33    795.00     13.74     13.18
03/16 15:00      0.00      0.00    635.55    715927    487.12        11      3600     77.45    252.70      3.61     15.57    762.00     13.74     13.18
03/16 16:00      0.00      0.00    635.53    715657    487.04        20      3600     78.12    247.60      3.78     10.99    672.00     13.74     13.12
03/16 17:00      0.00      0.00    635.51    715386    487.03        29      3600     78.44    256.00      2.88      9.34    526.00     13.74     13.18
03/16 18:00      0.00      0.00    635.50    715250    487.12        22      3600     78.44    245.00      2.89      9.77    337.00     13.74     13.18
03/16 19:00      0.00      0.00    635.49    715115    487.09        21      3600     76.59    284.20      1.24     10.87     91.00     13.74     13.24
03/16 20:00      0.00      0.00    635.49    715115    487.07        20      3600     66.69    216.00      0.30     27.10      8.00     13.74     13.24
03/16 21:00      0.00      0.00    635.48    714980    487.12        11      3600     59.00    162.50      0.34     36.20      1.00     13.75     13.24
03/16 22:00      0.00      0.00    635.47    714844    487.06         2      3600     54.72    165.40      0.38     54.14      0.00     13.75     13.18
03/16 23:00      0.00      0.00    635.45    714574    487.11         0      3600     51.96    152.60      0.40     63.55      0.00     13.75     13.18